Time;durP1;ratioP1;P1;durP2;ratioP2;P2;SDS_P1;SDS_P2;PMS_P1;PMS_P2;Temp;Humidity;BMP_temperature;BMP_pressure;BME280_temperature;BME280_humidity;BME280_pressure;Samples;Min_cycle;Max_cycle;Signal;HPM_P1;HPM_P2
2022/06/09 00:01:33;;;;;;;0.50;0.40;;;13.80;99.90;;;;;;5058530;28;20451;-82
2022/06/09 00:04:03;;;;;;;0.50;0.40;;;13.80;99.90;;;;;;5059140;28;20509;-82
2022/06/09 00:06:35;;;;;;;1.37;1.23;;;13.80;99.90;;;;;;5058636;28;20564;-83
2022/06/09 00:09:05;;;;;;;0.50;0.40;;;13.70;99.90;;;;;;5058897;28;20472;-83
2022/06/09 00:11:36;;;;;;;0.70;0.70;;;13.70;99.90;;;;;;5059097;28;20525;-82
2022/06/09 00:14:04;;;;;;;1.20;1.20;;;13.70;99.90;;;;;;5058506;28;20435;-82
2022/06/09 00:16:31;;;;;;;0.80;0.60;;;13.70;99.90;;;;;;5058309;28;20516;-82
2022/06/09 00:18:58;;;;;;;0.50;0.40;;;13.80;99.90;;;;;;5057753;28;20457;-82
2022/06/09 00:21:25;;;;;;;0.80;0.80;;;13.80;99.90;;;;;;5058325;28;20445;-83
2022/06/09 00:23:52;;;;;;;0.50;0.30;;;13.80;99.90;;;;;;5058259;28;20476;-82
2022/06/09 00:26:20;;;;;;;0.50;0.40;;;13.80;99.90;;;;;;5057955;28;20477;-83
2022/06/09 00:28:47;;;;;;;0.50;0.50;;;13.80;99.90;;;;;;5057760;28;20541;-82
2022/06/09 00:31:14;;;;;;;4.30;2.20;;;13.80;99.90;;;;;;5057753;28;20441;-82
2022/06/09 00:33:40;;;;;;;0.73;0.73;;;13.80;99.90;;;;;;5057400;28;20476;-81
2022/06/09 00:36:08;;;;;;;0.50;0.40;;;13.80;99.90;;;;;;5058101;28;20536;-81
2022/06/09 00:38:35;;;;;;;0.83;0.83;;;13.80;99.90;;;;;;5057919;28;20545;-83
2022/06/09 00:41:02;;;;;;;0.50;0.40;;;13.90;99.90;;;;;;5057163;28;20461;-83
2022/06/09 00:43:31;;;;;;;0.50;0.40;;;13.90;99.90;;;;;;5058291;28;20472;-83
2022/06/09 00:46:06;;;;;;;0.50;0.30;;;13.90;99.90;;;;;;5058071;28;20563;-82
2022/06/09 00:48:40;;;;;;;0.50;0.50;;;13.90;99.90;;;;;;5058062;28;20978;-83
2022/06/09 00:51:17;;;;;;;0.50;0.40;;;13.90;99.90;;;;;;5058219;28;20516;-82
2022/06/09 00:53:46;;;;;;;0.50;0.40;;;13.90;99.90;;;;;;5057596;28;20419;-83
2022/06/09 00:56:15;;;;;;;22.57;1.83;;;13.90;99.90;;;;;;5056984;28;21008;-83
2022/06/09 00:58:47;;;;;;;0.50;0.50;;;13.90;99.90;;;;;;5058348;28;20556;-82
2022/06/09 01:01:16;;;;;;;0.50;0.40;;;13.90;99.90;;;;;;5058369;28;20508;-83
2022/06/09 01:03:50;;;;;;;0.50;0.40;;;13.90;99.90;;;;;;5058279;28;20524;-81
2022/06/09 01:06:21;;;;;;;0.50;0.40;;;13.90;99.90;;;;;;5058205;28;20480;-82
2022/06/09 01:08:54;;;;;;;0.50;0.50;;;13.90;99.90;;;;;;5057346;28;20453;-82
2022/06/09 01:11:22;;;;;;;0.60;0.60;;;13.90;99.90;;;;;;5057593;28;20441;-83
2022/06/09 01:13:50;;;;;;;1.23;0.60;;;13.90;99.90;;;;;;5057685;28;20448;-82
2022/06/09 01:16:25;;;;;;;1.17;1.07;;;13.90;99.90;;;;;;5057846;28;21004;-82
2022/06/09 01:19:04;;;;;;;1.40;0.90;;;13.90;99.90;;;;;;5057317;28;20476;-82
2022/06/09 01:21:58;;;;;;;1.53;1.43;;;13.80;99.90;;;;;;5058133;28;20803;-83
2022/06/09 01:24:50;;;;;;;1.00;1.00;;;13.80;99.90;;;;;;5057457;28;20473;-82
2022/06/09 01:27:30;;;;;;;0.83;0.50;;;13.80;99.90;;;;;;5059678;28;20738;-84
2022/06/09 01:30:06;;;;;;;0.50;0.50;;;13.80;99.90;;;;;;5059128;28;20484;-82
2022/06/09 01:32:39;;;;;;;0.77;0.77;;;13.80;99.90;;;;;;5059103;28;20494;-83
2022/06/09 01:35:16;;;;;;;7.57;6.63;;;13.80;99.90;;;;;;5058355;28;20461;-83
2022/06/09 01:37:47;;;;;;;0.50;0.30;;;13.80;99.90;;;;;;5057653;28;20822;-83
2022/06/09 01:40:16;;;;;;;0.53;0.50;;;13.80;99.90;;;;;;5057479;28;20923;-83
2022/06/09 01:42:46;;;;;;;3.63;1.93;;;13.90;99.90;;;;;;5058187;28;20459;-84
2022/06/09 01:45:17;;;;;;;0.60;0.43;;;13.90;99.90;;;;;;5058427;28;20899;-82
2022/06/09 01:47:52;;;;;;;0.50;0.40;;;13.90;99.90;;;;;;5057230;28;20441;-83
2022/06/09 01:50:25;;;;;;;1.00;1.00;;;13.90;99.90;;;;;;5058463;28;20480;-83
2022/06/09 01:52:53;;;;;;;0.73;0.73;;;13.90;99.90;;;;;;5058363;28;20445;-82
2022/06/09 01:55:23;;;;;;;0.50;0.40;;;13.90;99.90;;;;;;5059310;28;20512;-82
2022/06/09 01:57:57;;;;;;;0.50;0.40;;;13.90;99.90;;;;;;5058045;28;20484;-81
2022/06/09 02:00:26;;;;;;;0.50;0.40;;;13.90;99.90;;;;;;5059366;28;20446;-83
2022/06/09 02:03:00;;;;;;;0.50;0.40;;;13.90;99.90;;;;;;5058477;28;20528;-83
2022/06/09 02:05:30;;;;;;;0.50;0.40;;;13.90;99.90;;;;;;5060295;28;20481;-83
2022/06/09 02:08:01;;;;;;;0.50;0.30;;;13.90;99.90;;;;;;5062240;28;20499;-82
2022/06/09 02:10:33;;;;;;;0.50;0.50;;;13.90;99.90;;;;;;5062603;28;20504;-82
2022/06/09 02:13:03;;;;;;;0.50;0.40;;;13.90;99.90;;;;;;5062279;28;20483;-83
2022/06/09 02:15:36;;;;;;;0.50;0.40;;;13.80;99.90;;;;;;5062225;28;20429;-81
2022/06/09 02:18:09;;;;;;;0.80;0.73;;;13.80;99.90;;;;;;5061638;28;20806;-83
2022/06/09 02:20:41;;;;;;;0.53;0.53;;;13.80;99.90;;;;;;5062211;28;20508;-83
2022/06/09 02:23:09;;;;;;;2.10;1.23;;;13.70;99.90;;;;;;5062132;28;20413;-82
2022/06/09 02:25:36;;;;;;;0.50;0.40;;;13.60;99.90;;;;;;5061602;28;21030;-83
2022/06/09 02:28:03;;;;;;;0.60;0.50;;;13.60;99.90;;;;;;5060997;28;20441;-82
2022/06/09 02:30:30;;;;;;;1.73;0.97;;;13.50;99.90;;;;;;5061889;28;20445;-83
2022/06/09 02:32:56;;;;;;;0.83;0.83;;;13.50;99.90;;;;;;5061462;28;20484;-80
2022/06/09 02:35:25;;;;;;;7.47;1.23;;;13.50;99.90;;;;;;5061738;28;20465;-82
2022/06/09 02:37:51;;;;;;;0.67;0.63;;;13.40;99.90;;;;;;5061673;28;20477;-82
2022/06/09 02:40:18;;;;;;;0.50;0.40;;;13.40;99.90;;;;;;5061415;28;20457;-82
2022/06/09 02:42:45;;;;;;;0.50;0.40;;;13.40;99.90;;;;;;5061762;28;20510;-82
2022/06/09 02:45:15;;;;;;;0.93;0.93;;;13.40;99.90;;;;;;5061689;28;20536;-82
2022/06/09 02:47:42;;;;;;;0.80;0.50;;;13.30;99.90;;;;;;5060550;28;20959;-80
2022/06/09 02:50:09;;;;;;;0.50;0.40;;;13.30;99.90;;;;;;5061256;28;20495;-82
2022/06/09 02:52:38;;;;;;;7.22;2.10;;;13.30;99.90;;;;;;5061807;28;20670;-83
2022/06/09 02:55:05;;;;;;;13.73;1.17;;;13.30;99.90;;;;;;5061969;28;20205;-82
2022/06/09 02:57:32;;;;;;;1.17;1.03;;;13.20;99.90;;;;;;5061332;28;20517;-83
2022/06/09 02:59:59;;;;;;;1.47;0.90;;;13.20;99.90;;;;;;5061239;28;20551;-81
2022/06/09 03:02:26;;;;;;;0.70;0.70;;;13.20;99.90;;;;;;5061523;28;20456;-82
2022/06/09 03:04:52;;;;;;;18.13;2.17;;;13.20;99.90;;;;;;5060897;28;20719;-83
2022/06/09 03:07:19;;;;;;;0.50;0.50;;;13.20;99.90;;;;;;5060847;28;20564;-83
2022/06/09 03:09:47;;;;;;;1.80;1.10;;;13.20;99.90;;;;;;5060848;28;20559;-81
2022/06/09 03:12:14;;;;;;;1.90;1.57;;;13.20;99.90;;;;;;5060247;28;20221;-81
2022/06/09 03:14:41;;;;;;;1.63;1.53;;;13.20;99.90;;;;;;5056705;28;20497;-80
2022/06/09 03:17:08;;;;;;;0.50;0.40;;;13.20;99.90;;;;;;5056648;28;20509;-80
2022/06/09 03:19:36;;;;;;;0.50;0.40;;;13.20;99.90;;;;;;5055861;28;20469;-81
2022/06/09 03:22:03;;;;;;;1.00;0.90;;;13.30;99.90;;;;;;5056767;28;20441;-80
2022/06/09 03:24:30;;;;;;;0.80;0.43;;;13.30;99.90;;;;;;5056196;28;20441;-79
2022/06/09 03:26:59;;;;;;;0.50;0.40;;;13.30;99.90;;;;;;5056379;28;20473;-79
2022/06/09 03:29:25;;;;;;;0.87;0.87;;;13.40;99.90;;;;;;5056515;28;20453;-81
2022/06/09 03:31:52;;;;;;;0.50;0.40;;;13.40;99.90;;;;;;5056340;28;20477;-81
2022/06/09 03:34:19;;;;;;;0.50;0.40;;;13.40;99.90;;;;;;5056657;28;20561;-80
2022/06/09 03:36:47;;;;;;;0.50;0.40;;;13.50;99.90;;;;;;5055996;28;20977;-81
2022/06/09 03:39:15;;;;;;;0.50;0.30;;;13.40;99.90;;;;;;5055810;28;20544;-80
2022/06/09 03:41:42;;;;;;;1.87;1.77;;;13.40;99.90;;;;;;5056485;28;20443;-80
2022/06/09 03:44:10;;;;;;;0.60;0.50;;;13.50;99.90;;;;;;5056062;28;20951;-79
2022/06/09 03:46:37;;;;;;;0.50;0.40;;;13.50;99.90;;;;;;5055698;28;20580;-81
2022/06/09 03:49:04;;;;;;;0.50;0.30;;;13.50;99.90;;;;;;5055173;28;20910;-79
2022/06/09 03:51:31;;;;;;;0.50;0.40;;;13.50;99.90;;;;;;5056009;28;20810;-82
2022/06/09 03:53:57;;;;;;;0.50;0.40;;;13.60;99.90;;;;;;5057375;28;20538;-83
2022/06/09 03:56:24;;;;;;;0.53;0.50;;;13.50;99.90;;;;;;5056621;28;20604;-81
2022/06/09 03:58:51;;;;;;;0.50;0.40;;;13.60;99.90;;;;;;5055497;28;20479;-80
2022/06/09 04:01:19;;;;;;;1.77;1.67;;;13.60;99.90;;;;;;5055863;28;20965;-80
2022/06/09 04:03:48;;;;;;;0.50;0.40;;;13.50;99.90;;;;;;5055705;28;20305;-80
2022/06/09 04:06:17;;;;;;;5.30;3.03;;;13.50;99.90;;;;;;5055952;28;20563;-82
2022/06/09 04:08:44;;;;;;;0.80;0.80;;;13.60;99.90;;;;;;5055118;28;20861;-82
2022/06/09 04:11:11;;;;;;;1.03;0.80;;;13.60;99.90;;;;;;5055461;28;20532;-81
2022/06/09 04:13:39;;;;;;;3.77;3.40;;;13.60;99.90;;;;;;5056160;28;20445;-81
2022/06/09 04:16:24;;;;;;;2.43;1.03;;;13.60;99.90;;;;;;5058185;28;20466;-82
2022/06/09 04:18:52;;;;;;;1.70;1.00;;;13.60;99.90;;;;;;5057062;28;20463;-81
2022/06/09 04:21:20;;;;;;;1.27;1.17;;;13.70;99.90;;;;;;5056197;28;20433;-82
2022/06/09 04:23:47;;;;;;;0.50;0.40;;;13.60;99.90;;;;;;5055365;28;20524;-80
2022/06/09 04:26:16;;;;;;;1.07;1.07;;;13.70;99.90;;;;;;5054858;28;20555;-81
2022/06/09 04:28:43;;;;;;;0.60;0.60;;;13.70;99.90;;;;;;5054359;28;20507;-81
2022/06/09 04:31:10;;;;;;;0.50;0.50;;;13.70;99.90;;;;;;5055147;28;20792;-82
2022/06/09 04:33:37;;;;;;;0.50;0.40;;;13.80;99.90;;;;;;5055144;28;20901;-82
2022/06/09 04:36:06;;;;;;;0.50;0.40;;;13.80;99.90;;;;;;5054723;28;20528;-79
2022/06/09 04:38:35;;;;;;;0.50;0.37;;;13.70;99.90;;;;;;5054685;28;20549;-82
2022/06/09 04:41:03;;;;;;;0.70;0.60;;;13.80;99.90;;;;;;5055074;28;20444;-81
2022/06/09 04:43:31;;;;;;;0.50;0.40;;;13.90;99.90;;;;;;5054638;28;20492;-82
2022/06/09 04:45:58;;;;;;;0.50;0.40;;;13.90;99.90;;;;;;5054417;28;21092;-83
2022/06/09 04:48:25;;;;;;;1.00;1.00;;;13.80;99.90;;;;;;5053989;28;20250;-83
2022/06/09 04:50:51;;;;;;;0.50;0.40;;;13.90;99.90;;;;;;5054616;28;20468;-82
2022/06/09 04:53:20;;;;;;;0.50;0.40;;;14.00;99.90;;;;;;5055155;28;21022;-82
2022/06/09 04:55:46;;;;;;;1.20;1.10;;;14.00;99.90;;;;;;5054511;28;20444;-82
2022/06/09 04:58:13;;;;;;;0.50;0.40;;;14.10;99.90;;;;;;5054024;28;20552;-81
2022/06/09 05:00:40;;;;;;;0.50;0.40;;;14.10;99.90;;;;;;5054493;28;20452;-81
2022/06/09 05:03:11;;;;;;;1.53;1.40;;;14.20;99.90;;;;;;5054789;28;20952;-81
2022/06/09 05:05:40;;;;;;;1.00;1.00;;;14.20;99.90;;;;;;5055592;28;20436;-81
2022/06/09 05:08:07;;;;;;;0.90;0.90;;;14.20;99.90;;;;;;5053525;28;20508;-80
2022/06/09 05:10:36;;;;;;;0.70;0.70;;;14.20;99.90;;;;;;5054336;28;20521;-82
2022/06/09 05:13:05;;;;;;;1.27;1.27;;;14.30;99.90;;;;;;5054545;28;20526;-82
2022/06/09 05:15:34;;;;;;;5.17;3.00;;;14.30;99.90;;;;;;5054007;28;20445;-81
2022/06/09 05:18:00;;;;;;;1.33;1.33;;;14.40;99.90;;;;;;5053869;28;20453;-82
2022/06/09 05:20:28;;;;;;;1.30;0.80;;;14.40;99.90;;;;;;5053857;28;20520;-82
2022/06/09 05:22:55;;;;;;;0.53;0.50;;;14.40;99.90;;;;;;5054391;28;20465;-80
2022/06/09 05:25:22;;;;;;;1.23;1.10;;;14.40;99.90;;;;;;5053509;28;20959;-81
2022/06/09 05:27:50;;;;;;;2.27;2.10;;;14.50;99.90;;;;;;5053489;28;20563;-82
2022/06/09 05:30:21;;;;;;;2.80;1.37;;;14.50;99.90;;;;;;5054439;28;20486;-82
2022/06/09 05:32:48;;;;;;;1.43;1.33;;;14.50;99.90;;;;;;5059647;28;20445;-81
2022/06/09 05:35:16;;;;;;;0.50;0.40;;;14.50;99.90;;;;;;5054359;28;20441;-81
2022/06/09 05:45:56;;;;;;;0.80;0.70;;;14.70;99.90;;;;;;5053862;28;20472;-81
2022/06/09 05:48:23;;;;;;;0.50;0.40;;;14.80;99.90;;;;;;5053840;28;20515;-82
2022/06/09 05:50:50;;;;;;;2.93;2.83;;;14.90;99.90;;;;;;5054355;28;20511;-82
2022/06/09 05:53:17;;;;;;;3.67;3.43;;;15.00;99.90;;;;;;5053742;28;20877;-81
2022/06/09 05:55:44;;;;;;;0.50;0.40;;;14.90;99.90;;;;;;5053790;28;20492;-81
2022/06/09 05:58:12;;;;;;;1.80;1.30;;;14.90;99.90;;;;;;5054160;28;20487;-83
2022/06/09 06:00:41;;;;;;;2.83;2.73;;;15.00;99.90;;;;;;5053227;28;20448;-81
2022/06/09 06:03:09;;;;;;;1.50;1.40;;;15.00;99.90;;;;;;5053244;28;20438;-82
2022/06/09 06:08:31;;;;;;;5.73;5.23;;;15.00;99.90;;;;;;4972126;28;20483;-80
2022/06/09 06:10:58;;;;;;;0.80;0.60;;;15.10;99.90;;;;;;5033149;28;20445;-81
2022/06/09 06:13:27;;;;;;;3.80;1.93;;;15.20;99.90;;;;;;5053132;28;20949;-80
2022/06/09 06:15:54;;;;;;;0.60;0.60;;;15.20;99.90;;;;;;5053397;28;20455;-81
2022/06/09 06:18:21;;;;;;;0.50;0.40;;;15.20;99.90;;;;;;5053156;28;20469;-81
2022/06/09 06:20:48;;;;;;;0.50;0.30;;;15.30;99.90;;;;;;5054039;28;20475;-82
2022/06/09 06:23:15;;;;;;;0.50;0.40;;;15.40;99.90;;;;;;5053473;28;20429;-82
2022/06/09 06:25:42;;;;;;;0.50;0.40;;;15.50;99.90;;;;;;5052535;28;20831;-82
2022/06/09 06:28:09;;;;;;;0.50;0.40;;;15.50;99.90;;;;;;5053346;28;20598;-81
2022/06/09 06:30:37;;;;;;;4.20;1.63;;;15.60;99.90;;;;;;5053486;28;20445;-82
2022/06/09 06:33:04;;;;;;;1.47;1.37;;;15.60;99.90;;;;;;5053289;28;20528;-82
2022/06/09 06:35:31;;;;;;;24.40;4.30;;;15.70;99.90;;;;;;5053671;28;20520;-82
2022/06/09 06:37:57;;;;;;;0.97;0.97;;;15.70;99.90;;;;;;5053341;28;20524;-82
2022/06/09 06:40:25;;;;;;;0.50;0.43;;;15.80;99.90;;;;;;5053190;28;20437;-81
2022/06/09 06:42:51;;;;;;;0.50;0.30;;;15.80;99.90;;;;;;5053592;28;20536;-82
2022/06/09 06:45:19;;;;;;;7.27;4.13;;;15.70;99.90;;;;;;5053696;28;20566;-81
2022/06/09 06:47:47;;;;;;;1.27;0.97;;;15.70;99.90;;;;;;5053150;28;20571;-82
2022/06/09 06:50:15;;;;;;;0.50;0.40;;;15.60;99.90;;;;;;5052570;28;20956;-82
2022/06/09 06:52:42;;;;;;;0.53;0.43;;;15.60;99.90;;;;;;5057427;28;20444;-81
2022/06/09 06:55:14;;;;;;;2.40;2.20;;;15.60;99.90;;;;;;5056831;28;20524;-82
2022/06/09 06:57:42;;;;;;;0.50;0.43;;;15.60;99.90;;;;;;5056767;28;20458;-82
2022/06/09 07:00:13;;;;;;;0.50;0.30;;;15.60;99.90;;;;;;5057151;28;20459;-82
2022/06/09 07:02:40;;;;;;;0.73;0.73;;;15.60;99.90;;;;;;5056987;28;20436;-82
2022/06/09 07:05:10;;;;;;;1.13;1.07;;;15.70;99.90;;;;;;5056294;28;20528;-82
2022/06/09 07:07:37;;;;;;;1.67;1.57;;;15.60;99.90;;;;;;5059079;28;21062;-80
2022/06/09 07:10:05;;;;;;;0.50;0.30;;;15.50;99.90;;;;;;5058134;28;20987;-82
2022/06/09 07:12:32;;;;;;;2.00;1.40;;;15.50;99.90;;;;;;5057314;28;20886;-81
2022/06/09 07:14:59;;;;;;;2.63;1.50;;;15.60;99.90;;;;;;5056163;28;21025;-83
2022/06/09 07:17:26;;;;;;;0.50;0.40;;;15.70;99.90;;;;;;5056791;28;20860;-82
2022/06/09 07:19:53;;;;;;;0.60;0.60;;;15.80;99.90;;;;;;5056768;28;20495;-81
2022/06/09 07:22:22;;;;;;;0.50;0.30;;;15.80;99.90;;;;;;5056090;28;20519;-81
2022/06/09 07:24:49;;;;;;;0.50;0.30;;;15.90;99.90;;;;;;5055282;28;20526;-81
2022/06/09 07:27:16;;;;;;;0.50;0.50;;;16.00;99.90;;;;;;5055864;28;20497;-80
2022/06/09 07:29:43;;;;;;;0.50;0.40;;;16.10;99.90;;;;;;5056802;28;20822;-81
2022/06/09 07:32:11;;;;;;;0.50;0.30;;;16.10;99.90;;;;;;5055992;28;20464;-83
2022/06/09 07:34:37;;;;;;;0.50;0.40;;;16.20;99.90;;;;;;5055630;28;20845;-81
2022/06/09 07:37:05;;;;;;;1.27;1.27;;;16.30;99.90;;;;;;5055991;28;20465;-83
2022/06/09 07:39:34;;;;;;;1.10;1.10;;;16.30;99.90;;;;;;5055933;28;20465;-82
2022/06/09 07:42:01;;;;;;;0.50;0.30;;;16.30;99.90;;;;;;5056372;28;20822;-81
2022/06/09 07:44:28;;;;;;;3.63;3.50;;;16.50;99.90;;;;;;5056048;28;20464;-80
2022/06/09 07:46:54;;;;;;;0.70;0.70;;;16.70;99.90;;;;;;5055821;28;20539;-81
2022/06/09 07:49:21;;;;;;;0.57;0.50;;;16.90;99.90;;;;;;5054835;28;20484;-81
2022/06/09 07:51:48;;;;;;;0.70;0.70;;;17.00;99.90;;;;;;5056533;28;20437;-81
2022/06/09 07:54:16;;;;;;;2.53;1.90;;;17.10;99.90;;;;;;5055953;28;20949;-81
2022/06/09 07:56:44;;;;;;;0.50;0.30;;;17.10;99.90;;;;;;5055710;28;20441;-82
2022/06/09 07:59:11;;;;;;;0.70;0.50;;;16.90;99.90;;;;;;5054609;28;21057;-82
2022/06/09 08:01:38;;;;;;;1.07;1.07;;;16.80;99.90;;;;;;5055594;28;20433;-80
2022/06/09 08:04:05;;;;;;;1.03;0.70;;;16.70;99.90;;;;;;5055741;28;20461;-82
2022/06/09 08:06:33;;;;;;;0.50;0.30;;;16.70;99.90;;;;;;5055060;28;20440;-80
2022/06/09 08:09:01;;;;;;;8.10;2.60;;;17.00;99.90;;;;;;5054925;28;20560;-81
2022/06/09 08:11:30;;;;;;;1.83;1.70;;;17.20;99.90;;;;;;5055179;28;20445;-81
2022/06/09 08:14:00;;;;;;;0.70;0.70;;;17.20;99.90;;;;;;5055538;28;20487;-81
2022/06/09 08:16:28;;;;;;;4.93;2.43;;;17.50;99.90;;;;;;5055721;28;20426;-81
2022/06/09 08:18:56;;;;;;;2.70;1.73;;;17.70;99.90;;;;;;5055871;28;20457;-80
2022/06/09 08:21:23;;;;;;;2.60;2.20;;;17.80;99.90;;;;;;5054988;28;20939;-81
2022/06/09 08:23:50;;;;;;;0.70;0.70;;;18.90;99.90;;;;;;5055374;28;21029;-82
2022/06/09 08:26:17;;;;;;;0.50;0.40;;;19.90;99.90;;;;;;5054348;28;20528;-81
2022/06/09 08:28:44;;;;;;;0.70;0.70;;;20.70;99.90;;;;;;5055305;28;20568;-82
2022/06/09 08:31:12;;;;;;;0.53;0.47;;;21.00;99.90;;;;;;5055652;28;20473;-82
2022/06/09 08:33:41;;;;;;;0.83;0.83;;;20.90;99.90;;;;;;5055257;28;20807;-80
2022/06/09 08:36:08;;;;;;;3.57;3.23;;;21.20;99.90;;;;;;5055242;28;20852;-82
2022/06/09 08:38:35;;;;;;;2.90;1.80;;;21.20;99.90;;;;;;5054934;28;20592;-82
2022/06/09 08:41:13;;;;;;;2.00;1.13;;;20.30;99.90;;;;;;5054737;28;20740;-81
2022/06/09 08:43:46;;;;;;;0.73;0.73;;;19.80;99.90;;;;;;5055129;28;20949;-81
2022/06/09 08:46:26;;;;;;;1.20;1.13;;;19.50;99.90;;;;;;5064010;28;20421;-82
2022/06/09 08:48:56;;;;;;;2.43;2.23;;;19.40;99.90;;;;;;5060352;28;20473;-81
2022/06/09 08:51:35;;;;;;;1.20;1.10;;;19.60;99.90;;;;;;5057738;28;20441;-82
2022/06/09 08:54:12;;;;;;;0.90;0.50;;;20.30;99.90;;;;;;5054598;28;20457;-80
2022/06/09 08:56:40;;;;;;;0.97;0.97;;;20.50;99.90;;;;;;5054285;28;20469;-82
2022/06/09 08:59:13;;;;;;;4.17;3.83;;;20.20;99.90;;;;;;5054477;28;20457;-82
2022/06/09 09:01:46;;;;;;;0.70;0.70;;;19.90;99.90;;;;;;5054404;28;20949;-82
2022/06/09 09:04:20;;;;;;;0.50;0.30;;;20.20;99.90;;;;;;5054690;28;20445;-82
2022/06/09 09:06:56;;;;;;;0.50;0.37;;;20.80;99.90;;;;;;5054851;28;20457;-80
2022/06/09 09:09:26;;;;;;;0.70;0.70;;;22.50;99.90;;;;;;5054160;28;20486;-82
2022/06/09 09:12:04;;;;;;;0.50;0.40;;;23.00;99.90;;;;;;5055021;28;20460;-82
2022/06/09 09:14:38;;;;;;;0.50;0.43;;;22.80;99.90;;;;;;5054904;28;20465;-80
2022/06/09 09:17:16;;;;;;;1.07;1.07;;;22.80;99.90;;;;;;5054496;28;20509;-82
2022/06/09 09:19:52;;;;;;;0.53;0.53;;;22.80;99.90;;;;;;5054546;28;20548;-81
2022/06/09 09:22:26;;;;;;;0.50;0.30;;;22.60;99.90;;;;;;5054816;28;20429;-82
2022/06/09 09:25:05;;;;;;;0.70;0.67;;;23.10;99.90;;;;;;5054650;28;20425;-82
2022/06/09 09:27:36;;;;;;;0.50;0.40;;;24.70;99.90;;;;;;5054209;28;21064;-82
2022/06/09 09:30:16;;;;;;;1.40;1.30;;;24.80;99.90;;;;;;5054918;28;20516;-82
2022/06/09 09:32:47;;;;;;;0.50;0.40;;;24.00;99.90;;;;;;5054711;28;20525;-82
2022/06/09 09:35:16;;;;;;;1.80;0.57;;;23.70;99.90;;;;;;5054568;28;20443;-82
2022/06/09 09:37:46;;;;;;;0.60;0.50;;;23.40;99.90;;;;;;5054911;28;20524;-82
2022/06/09 09:40:24;;;;;;;0.50;0.30;;;24.10;99.90;;;;;;5055393;28;20469;-82
2022/06/09 09:42:55;;;;;;;0.50;0.40;;;24.50;99.90;;;;;;5054697;28;20422;-82
2022/06/09 09:45:30;;;;;;;4.93;3.43;;;24.30;99.90;;;;;;5054683;28;20512;-82
2022/06/09 09:48:01;;;;;;;0.50;0.30;;;24.20;99.90;;;;;;5054224;28;20549;-80
2022/06/09 09:50:33;;;;;;;1.03;0.90;;;23.20;99.90;;;;;;5054687;28;20437;-81
2022/06/09 09:53:04;;;;;;;0.50;0.30;;;21.70;99.90;;;;;;5055828;28;20765;-81
2022/06/09 09:55:35;;;;;;;0.57;0.40;;;20.70;99.90;;;;;;5054543;28;20619;-81
2022/06/09 09:58:17;;;;;;;0.70;0.60;;;20.20;99.90;;;;;;5054003;28;20466;-81
2022/06/09 10:00:45;;;;;;;0.50;0.40;;;19.80;99.90;;;;;;5054913;28;20467;-81
2022/06/09 10:08:53;;;;;;;0.50;0.40;;;19.40;99.90;;;;;;5053513;28;20464;-81
2022/06/09 10:14:28;;;;;;;0.50;0.30;;;19.70;99.90;;;;;;5054283;28;20413;-80
2022/06/09 10:16:57;;;;;;;0.67;0.67;;;20.10;99.90;;;;;;5054072;28;20600;-81
2022/06/09 10:19:28;;;;;;;0.50;0.40;;;20.20;99.90;;;;;;5053252;28;20459;-80
2022/06/09 10:21:59;;;;;;;0.60;0.60;;;20.00;99.90;;;;;;5054597;28;20436;-81
2022/06/09 10:24:40;;;;;;;1.97;1.87;;;19.60;99.90;;;;;;5052867;28;20481;-82
2022/06/09 10:27:08;;;;;;;0.50;0.30;;;19.40;99.90;;;;;;5056239;28;20983;-79
2022/06/09 10:29:45;;;;;;;1.73;1.63;;;19.20;99.90;;;;;;5057479;28;20504;-82
2022/06/09 10:32:19;;;;;;;0.60;0.50;;;19.10;99.90;;;;;;5057878;28;20440;-81
2022/06/09 10:34:53;;;;;;;2.73;2.50;;;18.90;99.90;;;;;;5059169;28;20483;-82
2022/06/09 10:37:26;;;;;;;0.80;0.80;;;18.90;99.90;;;;;;5057982;28;20921;-83
2022/06/09 10:39:59;;;;;;;0.67;0.50;;;18.70;99.90;;;;;;5057752;28;20453;-81
2022/06/09 10:42:31;;;;;;;0.60;0.47;;;19.50;99.90;;;;;;5057178;28;20465;-82
2022/06/09 10:45:13;;;;;;;0.50;0.40;;;20.40;99.90;;;;;;5057186;28;20478;-82
2022/06/09 10:56:21;;;;;;;0.50;0.30;;;24.70;99.90;;;;;;5058322;28;20439;-79
2022/06/09 10:58:54;;;;;;;0.50;0.30;;;26.60;99.90;;;;;;5058202;28;20535;-80
2022/06/09 11:01:27;;;;;;;0.60;0.40;;;28.30;94.60;;;;;;5058789;28;20460;-82
2022/06/09 11:03:54;;;;;;;0.50;0.30;;;28.80;86.20;;;;;;5058128;28;20539;-81
2022/06/09 11:06:43;;;;;;;0.50;0.40;;;29.00;85.10;;;;;;5059070;28;20867;-81
2022/06/09 11:09:21;;;;;;;0.50;0.30;;;28.90;77.00;;;;;;5045693;28;20583;-82
2022/06/09 11:11:59;;;;;;;0.50;0.30;;;29.60;77.80;;;;;;5059154;28;20508;-81
2022/06/09 11:14:43;;;;;;;0.50;0.30;;;30.30;71.10;;;;;;5058434;28;20457;-81
2022/06/09 11:17:34;;;;;;;0.60;0.60;;;30.50;71.70;;;;;;5058240;28;20444;-82
2022/06/09 11:20:13;;;;;;;0.80;0.77;;;31.10;68.70;;;;;;5058842;28;20556;-81
2022/06/09 11:22:48;;;;;;;0.50;0.30;;;29.20;68.90;;;;;;5058845;28;20512;-78
2022/06/09 11:25:34;;;;;;;1.17;0.83;;;27.70;74.00;;;;;;5058766;28;20535;-81
2022/06/09 11:28:16;;;;;;;0.50;0.30;;;26.40;80.20;;;;;;5058243;28;20457;-80
2022/06/09 11:30:56;;;;;;;0.70;0.50;;;25.80;91.60;;;;;;5058275;28;20456;-80
2022/06/09 11:33:41;;;;;;;0.83;0.77;;;26.30;96.00;;;;;;5058581;28;20512;-81
2022/06/09 11:36:17;;;;;;;3.90;0.93;;;26.70;96.10;;;;;;5057693;28;20926;-79
2022/06/09 11:38:54;;;;;;;1.53;0.90;;;25.90;92.40;;;;;;5057991;28;20506;-81
2022/06/09 11:41:42;;;;;;;0.50;0.30;;;25.90;94.80;;;;;;5059434;28;20890;-82
2022/06/09 11:44:18;;;;;;;1.00;0.73;;;25.80;94.80;;;;;;5059359;28;20918;-82
2022/06/09 11:46:46;;;;;;;0.50;0.30;;;26.20;94.50;;;;;;5059408;28;20459;-80
2022/06/09 11:49:19;;;;;;;0.60;0.50;;;26.10;92.10;;;;;;5058251;28;20858;-81
2022/06/09 11:51:47;;;;;;;0.63;0.53;;;25.20;92.60;;;;;;5059305;28;20457;-80
2022/06/09 11:54:44;;;;;;;0.50;0.40;;;24.20;99.90;;;;;;5058555;28;20473;-81
2022/06/09 11:57:43;;;;;;;0.50;0.40;;;24.00;99.90;;;;;;5056784;28;20449;-79
2022/06/09 12:00:49;;;;;;;0.50;0.30;;;24.00;99.90;;;;;;5055165;28;20540;-80
2022/06/09 12:03:38;;;;;;;0.50;0.30;;;25.20;99.90;;;;;;5032045;28;20468;-81
2022/06/09 12:06:16;;;;;;;0.50;0.30;;;26.30;99.90;;;;;;5057207;28;20421;-81
2022/06/09 12:08:53;;;;;;;0.50;0.40;;;25.70;96.40;;;;;;5057399;28;20922;-81
2022/06/09 12:11:22;;;;;;;0.50;0.30;;;24.50;99.90;;;;;;5057451;28;20421;-82
2022/06/09 12:14:00;;;;;;;0.50;0.40;;;23.40;99.90;;;;;;5056374;28;20520;-81
2022/06/09 12:16:35;;;;;;;0.50;0.30;;;21.90;99.90;;;;;;5056811;28;20822;-80
2022/06/09 12:19:18;;;;;;;2.63;1.43;;;20.90;99.90;;;;;;5056036;28;20867;-81
2022/06/09 12:21:49;;;;;;;0.50;0.40;;;20.20;99.90;;;;;;5055256;28;20922;-81
2022/06/09 12:24:35;;;;;;;0.50;0.40;;;19.20;99.90;;;;;;5054435;28;20512;-82
2022/06/09 12:27:17;;;;;;;0.50;0.30;;;18.50;99.90;;;;;;5056059;28;20754;-80
2022/06/09 12:29:46;;;;;;;0.50;0.40;;;18.10;99.90;;;;;;5054497;28;20473;-81
2022/06/09 12:32:37;;;;;;;0.50;0.40;;;17.70;99.90;;;;;;5054898;28;20469;-81
2022/06/09 12:35:20;;;;;;;0.50;0.40;;;17.40;99.90;;;;;;5054859;28;20512;-82
2022/06/09 12:37:56;;;;;;;0.50;0.40;;;17.20;99.90;;;;;;5055363;28;20973;-83
2022/06/09 12:40:26;;;;;;;0.50;0.37;;;17.10;99.90;;;;;;5054688;28;20519;-81
2022/06/09 12:42:57;;;;;;;0.50;0.30;;;17.10;99.90;;;;;;5055422;28;20436;-78
2022/06/09 12:45:28;;;;;;;0.50;0.40;;;17.30;99.90;;;;;;5056450;28;20870;-83
2022/06/09 12:47:58;;;;;;;0.50;0.30;;;17.60;99.90;;;;;;5054487;28;20422;-79
2022/06/09 12:50:38;;;;;;;0.50;0.30;;;18.00;99.90;;;;;;5054219;28;21065;-80
2022/06/09 12:53:07;;;;;;;0.50;0.30;;;18.50;99.90;;;;;;5055167;28;20417;-81
2022/06/09 12:55:36;;;;;;;0.50;0.40;;;19.00;99.90;;;;;;5055810;28;20448;-82
2022/06/09 12:58:16;;;;;;;0.50;0.30;;;19.70;99.90;;;;;;5055874;28;20471;-82
2022/06/09 13:00:48;;;;;;;0.50;0.30;;;20.20;99.90;;;;;;5056564;28;20902;-82
2022/06/09 13:03:23;;;;;;;0.50;0.30;;;20.80;99.90;;;;;;5055369;28;20444;-81
2022/06/09 13:05:51;;;;;;;0.50;0.30;;;21.80;99.90;;;;;;5055468;28;20950;-81
2022/06/09 13:08:21;;;;;;;0.50;0.30;;;23.30;99.90;;;;;;5054993;28;20539;-82
2022/06/09 13:10:56;;;;;;;0.50;0.33;;;25.00;99.90;;;;;;5055770;28;20445;-80
2022/06/09 13:13:26;;;;;;;0.50;0.30;;;26.50;99.90;;;;;;5055359;28;20459;-81
2022/06/09 13:15:58;;;;;;;0.50;0.30;;;26.70;99.90;;;;;;5054533;28;20477;-81
2022/06/09 13:18:30;;;;;;;0.50;0.30;;;27.60;99.90;;;;;;5054433;28;20990;-81
2022/06/09 13:21:06;;;;;;;0.50;0.30;;;27.70;99.90;;;;;;5054630;28;20449;-81
2022/06/09 13:23:34;;;;;;;0.50;0.40;;;27.70;99.90;;;;;;5055034;28;20511;-80
2022/06/09 13:26:01;;;;;;;0.50;0.30;;;28.50;99.90;;;;;;5054795;28;20473;-81
2022/06/09 13:28:37;;;;;;;0.50;0.30;;;28.30;97.10;;;;;;5054760;28;20488;-81
2022/06/09 13:31:08;;;;;;;0.50;0.30;;;27.30;96.80;;;;;;5054943;28;20429;-81
2022/06/09 13:33:48;;;;;;;0.50;0.30;;;27.50;96.20;;;;;;5036728;28;20430;-81